createdAt,value
2022-12-22T00:00:29.201Z,112.10
2022-12-22T00:03:11.469Z,109.82
2022-12-22T00:05:53.770Z,113.90
2022-12-22T00:08:35.777Z,112.65
2022-12-22T00:11:18.155Z,113.65
2022-12-22T00:14:03.749Z,128.27
2022-12-22T00:16:50.310Z,123.95
2022-12-22T00:19:33.500Z,128.68
2022-12-22T00:22:20.025Z,122.05
2022-12-22T00:25:02.034Z,123.50
2022-12-22T00:27:48.750Z,127.68
2022-12-22T00:30:34.398Z,127.18
2022-12-22T00:33:17.551Z,112.30
2022-12-22T00:35:59.811Z,96.82
2022-12-22T00:38:41.675Z,100.60
2022-12-22T00:41:24.291Z,110.00
2022-12-22T00:44:06.167Z,105.38
2022-12-22T00:46:50.650Z,113.57
2022-12-22T00:49:33.447Z,101.70
2022-12-22T00:52:15.327Z,111.80
2022-12-22T00:54:57.149Z,99.68
2022-12-22T00:57:43.214Z,107.72
2022-12-22T01:00:33.794Z,107.18
2022-12-22T01:03:17.202Z,119.95
2022-12-22T01:05:59.101Z,117.88
2022-12-22T01:08:40.751Z,112.82
2022-12-22T01:11:22.336Z,120.57
2022-12-22T01:14:04.058Z,126.22
2022-12-22T01:16:45.885Z,101.32
2022-12-22T01:19:29.345Z,100.15
2022-12-22T01:22:11.383Z,105.63
2022-12-22T01:24:53.391Z,96.97
2022-12-22T01:27:35.321Z,95.20
2022-12-22T01:30:17.313Z,96.97
2022-12-22T01:32:59.366Z,94.80
2022-12-22T01:35:45.229Z,112.15
2022-12-22T01:38:27.292Z,97.85
2022-12-22T01:41:09.668Z,101.88
2022-12-22T01:43:53.286Z,112.22
2022-12-22T01:46:40.965Z,105.65
2022-12-22T01:49:22.806Z,107.57
2022-12-22T01:52:06.570Z,96.93
2022-12-22T01:54:48.334Z,94.38
2022-12-22T01:57:30.167Z,109.80
2022-12-22T02:00:12.290Z,109.53
2022-12-22T02:02:54.130Z,105.32
2022-12-22T02:05:38.043Z,107.07
2022-12-22T02:08:35.571Z,116.47
2022-12-22T02:11:32.342Z,116.88
2022-12-22T02:14:29.599Z,105.65
2022-12-22T02:17:18.619Z,98.25
2022-12-22T02:20:26.940Z,96.88
2022-12-22T02:23:17.189Z,111.55
2022-12-22T02:26:06.244Z,110.40
2022-12-22T02:28:51.939Z,110.35
2022-12-22T02:31:34.632Z,104.70
2022-12-22T02:34:16.283Z,102.07
2022-12-22T02:37:05.723Z,98.22
2022-12-22T02:39:56.681Z,100.50
2022-12-22T02:42:50.507Z,98.18
2022-12-22T02:45:45.149Z,98.22
2022-12-22T02:48:34.714Z,109.10
2022-12-22T02:51:24.813Z,108.53
2022-12-22T02:54:07.294Z,111.13
2022-12-22T02:56:49.393Z,99.15
2022-12-22T02:59:31.187Z,126.35
2022-12-22T03:02:15.021Z,116.35
2022-12-22T03:04:57.151Z,123.93
2022-12-22T03:07:39.222Z,117.22
2022-12-22T03:10:21.064Z,122.45
2022-12-22T03:13:02.810Z,115.95
2022-12-22T03:15:44.616Z,122.57
2022-12-22T03:18:30.625Z,115.80
2022-12-22T03:21:13.060Z,119.97
2022-12-22T03:23:54.900Z,102.05
2022-12-22T03:26:19.276Z,115.28
2022-12-22T03:28:43.586Z,116.78
2022-12-22T03:31:08.452Z,103.45
2022-12-22T03:33:34.926Z,127.65
2022-12-22T03:35:59.801Z,115.82
2022-12-22T03:38:24.428Z,100.30
2022-12-22T03:40:49.366Z,109.15
2022-12-22T03:43:32.453Z,119.75
2022-12-22T03:46:14.603Z,118.10
2022-12-22T03:48:40.518Z,125.03
2022-12-22T03:51:04.947Z,124.20
2022-12-22T03:53:29.521Z,119.85
2022-12-22T03:55:53.867Z,121.45
2022-12-22T03:58:18.260Z,106.93
2022-12-22T04:00:42.682Z,95.78
2022-12-22T04:03:07.130Z,105.45
2022-12-22T04:05:33.018Z,116.97
2022-12-22T04:07:57.521Z,114.80
2022-12-22T04:10:39.367Z,113.57
2022-12-22T04:13:04.069Z,122.35
2022-12-22T04:15:30.630Z,111.03
2022-12-22T04:17:55.553Z,117.38
2022-12-22T04:20:21.404Z,133.65
2022-12-22T04:22:47.987Z,123.90
2022-12-22T04:25:12.630Z,115.53
2022-12-22T04:27:37.324Z,136.25
2022-12-22T04:30:01.739Z,137.15
2022-12-22T04:32:27.274Z,133.50
2022-12-22T04:34:51.638Z,148.93
2022-12-22T04:37:17.815Z,138.45
2022-12-22T04:39:43.773Z,146.30
2022-12-22T04:42:08.535Z,120.50
2022-12-22T04:44:32.843Z,140.82
2022-12-22T04:46:57.431Z,138.73
2022-12-22T04:49:21.780Z,137.52
2022-12-22T04:51:46.192Z,133.75
2022-12-22T04:54:10.559Z,136.90
2022-12-22T04:56:36.349Z,127.28
2022-12-22T04:59:00.720Z,111.40
2022-12-22T05:01:29.830Z,108.32
2022-12-22T05:03:57.617Z,115.97
2022-12-22T05:06:22.096Z,119.13
2022-12-22T05:08:46.502Z,126.22
2022-12-22T05:11:11.372Z,123.18
2022-12-22T05:13:37.118Z,120.53
2022-12-22T05:16:06.301Z,137.07
2022-12-22T05:18:30.984Z,144.65
2022-12-22T05:20:55.360Z,132.85
2022-12-22T05:23:19.793Z,125.82
2022-12-22T05:25:44.229Z,121.35
2022-12-22T05:28:09.016Z,108.78
2022-12-22T05:30:35.020Z,135.70
2022-12-22T05:32:59.532Z,124.47
2022-12-22T05:35:24.028Z,128.05
2022-12-22T05:37:48.539Z,119.60
2022-12-22T05:40:14.503Z,132.70
2022-12-22T05:42:39.650Z,130.40
2022-12-22T05:45:13.662Z,124.25
2022-12-22T05:47:39.902Z,130.27
2022-12-22T05:50:04.596Z,115.75
2022-12-22T05:52:29.290Z,125.03
2022-12-22T05:54:53.812Z,119.53
2022-12-22T05:57:18.351Z,107.10
2022-12-22T05:59:42.962Z,121.47
2022-12-22T06:02:07.964Z,122.68
2022-12-22T06:04:33.954Z,100.93
2022-12-22T06:06:58.611Z,112.30
2022-12-22T06:09:23.019Z,99.93
2022-12-22T06:11:47.534Z,108.43
2022-12-22T06:14:12.027Z,106.85
2022-12-22T06:16:36.456Z,111.50
2022-12-22T06:19:01.227Z,118.82
2022-12-22T06:21:26.915Z,107.38
2022-12-22T06:23:51.405Z,109.25
2022-12-22T06:26:16.160Z,106.40
2022-12-22T06:28:40.641Z,110.40
2022-12-22T06:31:05.225Z,121.78
2022-12-22T06:33:29.875Z,137.00
2022-12-22T06:35:58.901Z,114.95
2022-12-22T06:38:25.482Z,114.53
2022-12-22T06:40:50.210Z,120.47
2022-12-22T06:43:13.829Z,106.18
2022-12-22T06:45:40.108Z,112.47
2022-12-22T06:48:05.111Z,99.93
2022-12-22T06:50:29.681Z,111.93
2022-12-22T06:52:54.059Z,101.45
2022-12-22T06:55:20.039Z,104.72
2022-12-22T06:57:44.500Z,108.60
2022-12-22T07:00:10.061Z,109.13
2022-12-22T07:02:34.756Z,102.18
2022-12-22T07:04:59.338Z,117.45
2022-12-22T07:07:23.703Z,112.80
2022-12-22T07:09:47.969Z,102.10
2022-12-22T07:12:14.744Z,97.95
2022-12-22T07:14:43.510Z,113.65
2022-12-22T07:17:09.158Z,107.60
2022-12-22T07:19:33.555Z,113.47
2022-12-22T07:21:57.954Z,109.50
2022-12-22T07:24:24.988Z,123.68
2022-12-22T07:26:49.294Z,118.07
2022-12-22T07:29:15.109Z,127.05
2022-12-22T07:31:39.409Z,117.97
2022-12-22T07:34:03.936Z,131.15
2022-12-22T07:36:28.268Z,128.65
2022-12-22T07:38:53.402Z,117.10
2022-12-22T07:41:37.269Z,114.50
2022-12-22T07:44:05.318Z,99.95
2022-12-22T07:46:33.144Z,96.78
2022-12-22T07:49:15.060Z,92.53
2022-12-22T07:51:41.813Z,84.53
2022-12-22T07:54:07.970Z,99.95
2022-12-22T07:56:32.723Z,92.22
2022-12-22T07:58:57.197Z,90.68
2022-12-22T08:01:21.710Z,86.97
2022-12-22T08:03:47.497Z,100.05
2022-12-22T08:06:12.150Z,96.57
2022-12-22T08:08:36.487Z,101.05
2022-12-22T08:11:03.354Z,103.93
2022-12-22T08:13:27.858Z,107.78
2022-12-22T08:15:52.174Z,114.30
2022-12-22T08:18:16.595Z,116.25
2022-12-22T08:20:42.264Z,108.18
2022-12-22T08:23:06.807Z,100.75
2022-12-22T08:25:33.241Z,104.18
2022-12-22T08:27:58.507Z,104.13
2022-12-22T08:30:22.935Z,98.95
2022-12-22T08:32:50.050Z,103.78
2022-12-22T08:35:14.376Z,110.18
2022-12-22T08:37:44.758Z,99.88
2022-12-22T08:40:12.769Z,114.43
2022-12-22T08:42:37.258Z,115.32
2022-12-22T08:45:01.820Z,108.93
2022-12-22T08:47:26.794Z,104.55
2022-12-22T08:49:51.740Z,112.57
2022-12-22T08:52:18.755Z,106.97
2022-12-22T08:54:44.961Z,100.07
2022-12-22T08:57:09.348Z,101.32
2022-12-22T08:59:33.696Z,100.22
2022-12-22T09:01:58.164Z,97.80
2022-12-22T09:04:25.516Z,90.15
2022-12-22T09:06:52.294Z,99.10
2022-12-22T09:09:17.864Z,90.05
2022-12-22T09:11:43.741Z,100.30
2022-12-22T09:14:09.206Z,103.80
2022-12-22T09:16:35.109Z,100.63
2022-12-22T09:19:00.119Z,104.65
2022-12-22T09:21:25.486Z,118.90
2022-12-22T09:23:50.266Z,124.32
2022-12-22T09:26:17.646Z,127.25
2022-12-22T09:28:48.238Z,130.55
2022-12-22T09:31:15.583Z,114.57
2022-12-22T09:33:40.221Z,126.43
2022-12-22T09:36:08.016Z,115.90
2022-12-22T09:38:33.637Z,107.35
2022-12-22T09:40:58.469Z,111.20
2022-12-22T09:43:26.626Z,110.20
2022-12-22T09:45:52.697Z,112.80
2022-12-22T09:48:17.387Z,110.68
2022-12-22T09:50:43.345Z,116.32
2022-12-22T09:53:18.182Z,115.55
2022-12-22T09:55:59.115Z,120.15
2022-12-22T09:58:32.105Z,130.93
2022-12-22T10:01:32.394Z,134.57
2022-12-22T10:04:30.651Z,132.55
2022-12-22T10:07:26.319Z,128.90
2022-12-22T10:09:58.863Z,113.60
2022-12-22T10:12:35.630Z,111.72
2022-12-22T10:15:04.779Z,122.25
2022-12-22T10:17:39.438Z,114.82
2022-12-22T10:20:22.424Z,114.60
2022-12-22T10:22:52.915Z,105.07
2022-12-22T10:28:23.639Z,116.05
2022-12-22T10:30:52.086Z,112.32
2022-12-22T10:33:24.830Z,114.13
2022-12-22T10:35:56.583Z,122.05
2022-12-22T10:38:28.549Z,121.75
2022-12-22T10:41:02.049Z,124.03
2022-12-22T10:43:33.214Z,119.78
2022-12-22T10:46:02.607Z,118.45
2022-12-22T10:48:35.773Z,111.85
2022-12-22T10:51:02.652Z,116.18
2022-12-22T10:53:44.688Z,114.63
2022-12-22T10:56:19.080Z,114.20
2022-12-22T10:58:50.481Z,106.25
2022-12-22T11:01:15.519Z,117.80
2022-12-22T11:03:41.365Z,121.70
2022-12-22T11:06:13.799Z,125.93
2022-12-22T11:08:38.397Z,126.65
2022-12-22T11:11:08.346Z,117.82
2022-12-22T11:16:18.288Z,126.57
2022-12-22T11:19:03.638Z,121.97
2022-12-22T11:21:36.664Z,112.90
2022-12-22T11:24:11.561Z,117.72
2022-12-22T11:26:44.964Z,119.35
2022-12-22T11:29:34.589Z,110.20
2022-12-22T11:32:18.285Z,110.05
2022-12-22T11:34:57.081Z,118.68
2022-12-22T11:37:32.972Z,117.10
2022-12-22T11:40:08.067Z,115.90
2022-12-22T11:43:01.952Z,116.43
2022-12-22T11:45:48.678Z,106.93
2022-12-22T11:48:41.574Z,110.75
2022-12-22T11:51:14.739Z,112.88
2022-12-22T11:54:10.908Z,105.53
2022-12-22T11:56:40.234Z,101.43
2022-12-22T11:59:30.643Z,108.75
2022-12-22T12:02:09.659Z,119.55
2022-12-22T12:05:01.973Z,118.38
2022-12-22T12:07:34.340Z,117.20
2022-12-22T12:10:08.140Z,119.07
2022-12-22T12:12:45.565Z,115.20
2022-12-22T12:15:23.840Z,115.53
2022-12-22T12:18:02.694Z,123.18
2022-12-22T12:20:49.765Z,124.55
2022-12-22T12:23:44.681Z,132.02
2022-12-22T12:26:16.980Z,124.95
2022-12-22T12:28:52.960Z,119.75
2022-12-22T12:31:26.087Z,125.57
2022-12-22T12:33:55.505Z,129.85
2022-12-22T12:36:26.136Z,121.57
2022-12-22T12:39:08.079Z,125.07
2022-12-22T12:41:39.564Z,123.00
2022-12-22T12:44:05.824Z,110.43
2022-12-22T12:47:02.277Z,124.03
2022-12-22T12:49:55.988Z,121.47
2022-12-22T12:52:40.407Z,119.10
2022-12-22T12:55:31.904Z,116.85
2022-12-22T12:57:58.255Z,121.95
2022-12-22T13:00:53.931Z,115.07
2022-12-22T13:06:51.070Z,126.85
2022-12-22T13:09:49.365Z,119.53
2022-12-22T13:12:40.182Z,133.65
2022-12-22T13:15:05.284Z,124.00
2022-12-22T13:17:49.241Z,120.90
2022-12-22T13:20:18.086Z,119.50
2022-12-22T13:22:44.552Z,122.95
2022-12-22T13:25:16.617Z,116.78
2022-12-22T13:27:42.950Z,113.50
2022-12-22T13:30:13.498Z,117.97
2022-12-22T13:32:41.986Z,120.57
2022-12-22T13:35:33.218Z,114.85
2022-12-22T13:37:59.425Z,125.95
2022-12-22T13:40:26.857Z,121.68
2022-12-22T13:42:55.413Z,124.53
2022-12-22T13:45:29.176Z,116.60
2022-12-22T13:47:54.312Z,110.75
2022-12-22T13:50:21.733Z,107.47
2022-12-22T13:52:46.553Z,103.55
2022-12-22T13:55:14.722Z,111.75
2022-12-22T13:57:41.239Z,125.43
2022-12-22T14:00:18.335Z,122.80
2022-12-22T14:02:43.011Z,102.05
2022-12-22T14:05:09.846Z,117.40
2022-12-22T14:07:34.840Z,121.63
2022-12-22T14:10:00.015Z,111.75
2022-12-22T14:12:26.482Z,123.10
2022-12-22T14:14:52.998Z,111.97
2022-12-22T14:17:24.026Z,111.57
2022-12-22T14:19:51.728Z,113.00
2022-12-22T14:22:19.778Z,127.03
2022-12-22T14:24:48.529Z,118.80
2022-12-22T14:27:22.990Z,124.32
2022-12-22T14:29:47.667Z,113.35
2022-12-22T14:32:29.475Z,119.65
2022-12-22T14:34:56.139Z,120.20
2022-12-22T14:37:32.354Z,127.68
2022-12-22T14:39:57.842Z,115.80
2022-12-22T14:42:22.223Z,118.60
2022-12-22T14:44:47.584Z,122.30
2022-12-22T14:47:18.484Z,120.72
2022-12-22T14:49:51.728Z,115.15
2022-12-22T14:52:22.460Z,113.80
2022-12-22T14:54:48.819Z,117.53
2022-12-22T14:57:17.325Z,117.75
2022-12-22T14:59:41.887Z,117.63
2022-12-22T15:02:22.571Z,119.07
2022-12-22T15:04:47.211Z,120.38
2022-12-22T15:07:54.427Z,118.47
2022-12-22T15:10:20.968Z,118.60
2022-12-22T15:12:45.962Z,126.00
2022-12-22T15:15:17.813Z,123.60
2022-12-22T15:17:42.484Z,116.15
2022-12-22T15:20:08.473Z,118.63
2022-12-22T15:22:35.027Z,116.72
2022-12-22T15:24:59.534Z,117.22
2022-12-22T15:27:24.097Z,129.50
2022-12-22T15:29:48.726Z,124.35
2022-12-22T15:32:14.269Z,127.13
2022-12-22T15:34:38.971Z,131.70
2022-12-22T15:37:03.846Z,140.20
2022-12-22T15:39:34.419Z,136.80
2022-12-22T15:41:59.507Z,132.13
2022-12-22T15:44:23.969Z,127.28
2022-12-22T15:46:55.959Z,132.43
2022-12-22T15:49:23.656Z,128.00
2022-12-22T15:51:51.650Z,129.60
2022-12-22T15:54:17.355Z,147.20
2022-12-22T15:56:44.561Z,149.73
2022-12-22T15:59:15.745Z,134.00
2022-12-22T16:01:40.592Z,130.57
2022-12-22T16:04:05.152Z,132.55
2022-12-22T16:06:30.694Z,134.70
2022-12-22T16:08:55.612Z,127.78
2022-12-22T16:11:20.446Z,145.80
2022-12-22T16:13:47.616Z,137.95
2022-12-22T16:16:12.994Z,134.00
2022-12-22T16:18:39.882Z,135.32
2022-12-22T16:21:09.540Z,137.25
2022-12-22T16:23:34.145Z,137.05
2022-12-22T16:26:02.158Z,138.00
2022-12-22T16:28:27.111Z,136.48
2022-12-22T16:30:54.105Z,138.80
2022-12-22T16:33:19.102Z,143.73
2022-12-22T16:35:43.536Z,137.30
2022-12-22T16:38:13.036Z,150.00
2022-12-22T16:40:44.751Z,138.38
2022-12-22T16:46:00.814Z,133.90
2022-12-22T16:48:33.808Z,132.27
2022-12-22T16:50:58.735Z,145.40
2022-12-22T16:53:23.212Z,148.93
2022-12-22T16:55:48.051Z,138.05
2022-12-22T16:58:14.353Z,146.02
2022-12-22T17:00:39.860Z,148.95
2022-12-22T17:03:13.373Z,144.00
2022-12-22T17:05:44.843Z,145.63
2022-12-22T17:08:17.246Z,144.32
2022-12-22T17:10:41.848Z,161.10
2022-12-22T17:13:06.360Z,141.23
2022-12-22T17:15:31.022Z,147.25
2022-12-22T17:17:55.679Z,145.32
2022-12-22T17:20:24.858Z,143.38
2022-12-22T17:22:53.030Z,148.90
2022-12-22T17:25:20.974Z,145.07
2022-12-22T17:27:45.637Z,148.50
2022-12-22T17:30:18.331Z,141.85
2022-12-22T17:32:43.135Z,147.07
2022-12-22T17:35:07.724Z,151.13
2022-12-22T17:37:33.594Z,162.55
2022-12-22T17:40:02.950Z,150.57
2022-12-22T17:42:27.877Z,141.48
2022-12-22T17:44:53.576Z,147.63
2022-12-22T17:47:25.184Z,149.88
2022-12-22T17:49:56.206Z,144.93
2022-12-22T17:52:23.237Z,139.82
2022-12-22T17:54:51.488Z,138.20
2022-12-22T17:57:20.168Z,137.50
2022-12-22T17:59:44.635Z,138.65
2022-12-22T18:02:16.366Z,149.00
2022-12-22T18:04:41.191Z,145.68
2022-12-22T18:07:05.613Z,156.38
2022-12-22T18:09:30.239Z,152.60
2022-12-22T18:11:56.211Z,148.85
2022-12-22T18:14:24.838Z,157.73
2022-12-22T18:16:49.628Z,150.60
2022-12-22T18:19:14.180Z,156.32
2022-12-22T18:21:38.768Z,148.77
2022-12-22T18:24:04.559Z,146.07
2022-12-22T18:26:31.148Z,148.20
2022-12-22T18:28:57.408Z,146.02
2022-12-22T18:31:22.698Z,148.57
2022-12-22T18:33:47.491Z,138.77
2022-12-22T18:36:25.006Z,148.82
2022-12-22T18:38:50.761Z,141.88
2022-12-22T18:41:19.885Z,138.02
2022-12-22T18:43:44.478Z,135.52
2022-12-22T18:46:12.443Z,149.07
2022-12-22T18:48:37.025Z,152.18
2022-12-22T18:51:01.492Z,151.77
2022-12-22T18:53:30.226Z,144.80
2022-12-22T18:55:55.228Z,156.18
2022-12-22T18:58:20.432Z,158.77
2022-12-22T19:00:45.517Z,148.98
2022-12-22T19:03:18.729Z,154.73
2022-12-22T19:05:44.890Z,150.00
2022-12-22T19:08:14.779Z,149.10
2022-12-22T19:13:09.301Z,145.93
2022-12-22T19:15:36.602Z,146.18
2022-12-22T19:18:01.033Z,137.15
2022-12-22T19:20:27.915Z,140.30
2022-12-22T19:22:53.180Z,142.13
2022-12-22T19:25:19.504Z,144.45
2022-12-22T19:27:44.241Z,138.38
2022-12-22T19:30:17.233Z,161.32
2022-12-22T19:32:46.257Z,152.35
2022-12-22T19:35:15.132Z,166.13
2022-12-22T19:37:41.255Z,169.80
2022-12-22T19:40:06.452Z,169.18
2022-12-22T19:42:30.942Z,164.88
2022-12-22T19:44:55.698Z,166.05
2022-12-22T19:47:24.403Z,155.40
2022-12-22T19:49:49.493Z,162.25
2022-12-22T19:52:13.915Z,176.38
2022-12-22T19:54:40.120Z,168.50
2022-12-22T19:57:07.536Z,166.77
2022-12-22T19:59:39.072Z,148.32
2022-12-22T20:02:08.871Z,145.20
2022-12-22T20:04:33.574Z,139.93
2022-12-22T20:06:58.119Z,140.50
2022-12-22T20:09:22.674Z,145.98
2022-12-22T20:11:48.730Z,126.90
2022-12-22T20:14:17.898Z,138.15
2022-12-22T20:16:42.400Z,134.93
2022-12-22T20:19:14.042Z,133.65
2022-12-22T20:21:38.810Z,124.15
2022-12-22T20:24:05.805Z,151.77
2022-12-22T20:26:30.652Z,145.90
2022-12-22T20:28:56.704Z,148.90
2022-12-22T20:31:24.561Z,145.90
2022-12-22T20:33:49.727Z,154.13
2022-12-22T20:36:21.494Z,154.60
2022-12-22T20:38:46.829Z,165.80
2022-12-22T20:41:11.902Z,152.95
2022-12-22T20:43:37.561Z,165.82
2022-12-22T20:46:07.930Z,174.68
2022-12-22T20:48:36.018Z,150.48
2022-12-22T20:51:01.144Z,168.50
2022-12-22T20:53:25.827Z,158.20
2022-12-22T20:55:50.556Z,168.43
2022-12-22T20:58:21.949Z,168.15
2022-12-22T21:00:46.900Z,160.93
2022-12-22T21:03:13.203Z,169.13
2022-12-22T21:05:38.087Z,155.63
2022-12-22T21:08:02.577Z,153.40
2022-12-22T21:10:27.856Z,152.27
2022-12-22T21:12:52.393Z,149.35
2022-12-22T21:15:22.148Z,134.65
2022-12-22T21:17:49.075Z,136.40
2022-12-22T21:20:32.272Z,143.40
2022-12-22T21:22:56.831Z,148.27
2022-12-22T21:25:21.148Z,145.32
2022-12-22T21:27:48.446Z,134.05
2022-12-22T21:30:20.492Z,127.38
2022-12-22T21:32:45.299Z,134.45
2022-12-22T21:35:13.684Z,140.23
2022-12-22T21:37:39.644Z,140.77
2022-12-22T21:40:04.129Z,130.80
2022-12-22T21:42:28.588Z,139.52
2022-12-22T21:44:52.906Z,136.45
2022-12-22T21:47:20.771Z,130.80
2022-12-22T21:49:45.172Z,142.35
2022-12-22T21:52:10.532Z,134.23
2022-12-22T21:54:36.257Z,134.40
2022-12-22T21:57:00.803Z,128.93
2022-12-22T21:59:25.183Z,131.40
2022-12-22T22:01:53.954Z,146.07
2022-12-22T22:04:18.436Z,139.02
2022-12-22T22:06:42.964Z,134.68
2022-12-22T22:09:07.761Z,125.05
2022-12-22T22:11:33.675Z,130.32
2022-12-22T22:13:58.134Z,129.82
2022-12-22T22:16:22.589Z,127.05
2022-12-22T22:18:48.554Z,135.52
2022-12-22T22:21:15.069Z,125.80
2022-12-22T22:23:39.712Z,122.57
2022-12-22T22:26:04.919Z,134.70
2022-12-22T22:28:30.715Z,146.70
2022-12-22T22:30:55.128Z,143.05
2022-12-22T22:33:19.589Z,150.07
2022-12-22T22:35:44.000Z,159.77
2022-12-22T22:38:08.604Z,144.48
2022-12-22T22:40:33.110Z,154.05
2022-12-22T22:42:57.972Z,147.10
2022-12-22T22:45:24.452Z,144.88
2022-12-22T22:47:48.876Z,138.52
2022-12-22T22:50:13.633Z,146.10
2022-12-22T22:52:38.262Z,148.75
2022-12-22T22:55:02.648Z,162.15
2022-12-22T22:57:27.236Z,149.20
2022-12-22T22:59:51.795Z,141.13
2022-12-22T23:02:17.952Z,144.40
2022-12-22T23:04:42.521Z,129.63
2022-12-22T23:07:06.954Z,129.55
2022-12-22T23:09:31.380Z,132.07
2022-12-22T23:11:56.023Z,133.82
2022-12-22T23:14:20.599Z,144.50
2022-12-22T23:16:45.001Z,145.32
2022-12-22T23:19:11.427Z,146.40
2022-12-22T23:21:35.976Z,149.95
2022-12-22T23:24:00.317Z,136.25
2022-12-22T23:26:25.671Z,132.60
2022-12-22T23:28:50.087Z,142.82
2022-12-22T23:31:14.620Z,143.05
2022-12-22T23:33:38.970Z,128.05
2022-12-22T23:36:05.561Z,146.75
2022-12-22T23:38:29.892Z,135.77
2022-12-22T23:40:55.024Z,130.00
2022-12-22T23:43:19.544Z,140.70
2022-12-22T23:45:44.270Z,146.52
2022-12-22T23:48:09.685Z,136.45
2022-12-22T23:50:34.258Z,146.05
2022-12-22T23:53:00.056Z,153.95
2022-12-22T23:55:24.517Z,154.63
2022-12-22T23:57:51.125Z,141.55
